createdAt,value
2018-04-28T00:02:15.018Z,15.54
2018-04-28T00:04:42.536Z,15.57
2018-04-28T00:07:10.341Z,15.58
2018-04-28T00:09:37.853Z,15.57
2018-04-28T00:12:05.384Z,15.49
2018-04-28T00:14:33.116Z,15.44
2018-04-28T00:17:15.521Z,15.42
2018-04-28T00:19:43.991Z,15.44
2018-04-28T00:22:13.312Z,15.45
2018-04-28T00:24:43.639Z,15.46
2018-04-28T00:27:16.039Z,15.39
2018-04-28T00:29:46.241Z,15.38
2018-04-28T00:32:13.768Z,15.35
2018-04-28T00:34:48.568Z,15.31
2018-04-28T00:37:16.826Z,15.25
2018-04-28T00:39:50.079Z,15.24
2018-04-28T00:42:18.580Z,15.18
2018-04-28T00:44:47.073Z,15.15
2018-04-28T00:47:17.374Z,15.15
2018-04-28T00:49:50.686Z,15.16
2018-04-28T00:52:21.356Z,15.17
2018-04-28T00:54:59.492Z,15.14
2018-04-28T01:00:47.952Z,15.16
2018-04-28T01:03:15.526Z,15.16
2018-04-28T01:05:47.944Z,15.13
2018-04-28T01:08:17.425Z,15.09
2018-04-28T01:10:49.556Z,15.05
2018-04-28T01:13:17.112Z,15.02
2018-04-28T01:15:44.670Z,14.98
2018-04-28T01:18:19.684Z,14.87
2018-04-28T01:20:53.058Z,14.77
2018-04-28T01:23:21.314Z,14.87
2018-04-28T01:25:49.699Z,14.82
2018-04-28T01:28:23.190Z,14.79
2018-04-28T01:30:53.678Z,14.79
2018-04-28T01:33:27.328Z,14.73
2018-04-28T01:36:02.397Z,14.73
2018-04-28T01:38:35.624Z,14.70
2018-04-28T01:41:14.768Z,14.77
2018-04-28T01:43:49.085Z,14.68
2018-04-28T01:49:31.329Z,14.55
2018-04-28T01:55:08.381Z,14.39
2018-04-28T02:00:43.556Z,14.41
2018-04-28T02:03:21.002Z,14.30
2018-04-28T02:05:54.648Z,14.29
2018-04-28T02:08:22.157Z,14.27
2018-04-28T02:10:54.736Z,14.24
2018-04-28T02:13:30.150Z,14.20
2018-04-28T02:19:03.002Z,14.01
2018-04-28T02:24:52.488Z,13.88
2018-04-28T02:31:02.785Z,14.11
2018-04-28T02:33:30.344Z,13.99
2018-04-28T02:35:59.539Z,13.96
2018-04-28T02:38:28.976Z,14.01
2018-04-28T02:41:15.621Z,13.94
2018-04-28T02:43:49.062Z,13.95
2018-04-28T02:46:29.347Z,13.59
2018-04-28T02:51:59.989Z,14.00
2018-04-28T02:57:39.353Z,13.94
2018-04-28T03:00:07.620Z,13.81
2018-04-28T03:02:40.080Z,13.76
2018-04-28T03:05:15.408Z,13.58
2018-04-28T03:07:53.850Z,13.69
2018-04-28T03:10:27.219Z,13.76
2018-04-28T03:12:54.773Z,13.75
2018-04-28T03:15:22.300Z,13.67
2018-04-28T03:17:59.452Z,13.73
2018-04-28T03:20:45.806Z,13.75
2018-04-28T03:23:22.208Z,13.76
2018-04-28T03:25:51.581Z,13.76
2018-04-28T03:28:21.035Z,13.96
2018-04-28T03:30:58.308Z,14.03
2018-04-28T03:33:32.836Z,14.11
2018-04-28T03:36:03.989Z,14.07
2018-04-28T03:38:37.405Z,13.95
2018-04-28T03:44:20.089Z,13.89
2018-04-28T03:46:52.304Z,13.93
2018-04-28T03:49:26.308Z,13.92
2018-04-28T03:52:04.796Z,13.87
2018-04-28T03:54:56.231Z,13.91
2018-04-28T03:57:36.679Z,13.84
2018-04-28T04:03:18.095Z,13.98
2018-04-28T04:06:09.991Z,14.01
2018-04-28T04:08:43.387Z,14.08
2018-04-28T04:14:30.966Z,14.05
2018-04-28T04:17:06.332Z,14.04
2018-04-28T04:19:45.960Z,13.92
2018-04-28T04:25:34.719Z,14.17
2018-04-28T04:28:15.228Z,14.34
2018-04-28T04:33:50.177Z,14.64
2018-04-28T04:36:29.568Z,14.69
2018-04-28T04:39:00.835Z,14.70
2018-04-28T04:41:49.997Z,14.82
2018-04-28T04:44:34.361Z,14.79
2018-04-28T04:50:38.581Z,14.72
2018-04-28T04:53:18.962Z,14.72
2018-04-28T04:58:50.120Z,14.68
2018-04-28T05:04:34.815Z,14.69
2018-04-28T05:07:09.231Z,14.65
2018-04-28T05:16:07.214Z,15.17
2018-04-28T05:21:40.845Z,15.18
2018-04-28T05:27:20.132Z,15.44
2018-04-28T05:29:56.620Z,15.50
2018-04-28T05:36:01.154Z,15.73
2018-04-28T05:41:52.997Z,16.25
2018-04-28T05:44:28.434Z,16.58
2018-04-28T05:47:13.660Z,16.86
2018-04-28T05:49:50.464Z,17.12
2018-04-28T05:52:30.022Z,17.18
2018-04-28T05:54:59.743Z,17.24
2018-04-28T06:00:50.109Z,17.15
2018-04-28T06:06:45.217Z,16.33
2018-04-28T06:09:24.679Z,16.27
2018-04-28T06:15:19.021Z,16.30
2018-04-28T06:17:58.642Z,16.47
2018-04-28T06:20:31.922Z,16.56
2018-04-28T06:22:59.683Z,16.47
2018-04-28T06:25:27.416Z,16.41
2018-04-28T06:27:55.030Z,16.58
2018-04-28T06:30:23.049Z,16.92
2018-04-28T06:32:50.784Z,17.09
2018-04-28T06:35:18.352Z,17.36
2018-04-28T06:37:46.169Z,17.47
2018-04-28T06:40:13.736Z,17.54
2018-04-28T06:42:41.272Z,17.27
2018-04-28T06:45:09.497Z,17.24
2018-04-28T06:47:37.081Z,17.54
2018-04-28T06:50:04.607Z,17.77
2018-04-28T06:52:32.648Z,17.79
2018-04-28T06:55:00.161Z,17.93
2018-04-28T06:57:27.697Z,18.04
2018-04-28T06:59:55.629Z,18.17
2018-04-28T07:02:23.242Z,18.29
2018-04-28T07:04:50.769Z,18.40
2018-04-28T07:07:18.532Z,18.35
2018-04-28T07:09:46.044Z,18.46
2018-04-28T07:12:13.580Z,18.42
2018-04-28T07:14:41.155Z,18.51
2018-04-28T07:17:08.729Z,18.39
2018-04-28T07:19:36.298Z,18.76
2018-04-28T07:22:03.877Z,18.91
2018-04-28T07:24:31.438Z,18.95
2018-04-28T07:26:58.949Z,19.23
2018-04-28T07:29:26.761Z,19.01
2018-04-28T07:31:54.293Z,19.13
2018-04-28T07:34:21.817Z,19.12
2018-04-28T07:36:50.654Z,19.66
2018-04-28T07:39:20.161Z,20.43
2018-04-28T07:41:48.744Z,21.15
2018-04-28T07:44:17.451Z,21.85
2018-04-28T07:46:45.090Z,22.62
2018-04-28T07:49:12.711Z,22.84
2018-04-28T07:51:41.745Z,23.40
2018-04-28T07:54:10.123Z,23.16
2018-04-28T07:56:37.798Z,22.49
2018-04-28T07:59:05.669Z,22.63
2018-04-28T08:01:33.293Z,21.59
2018-04-28T08:04:00.925Z,20.93
2018-04-28T08:06:28.510Z,20.44
2018-04-28T08:08:57.197Z,20.30
2018-04-28T08:11:24.851Z,20.10
2018-04-28T08:13:52.779Z,19.85
2018-04-28T08:16:20.673Z,19.90
2018-04-28T08:18:48.302Z,19.59
2018-04-28T08:21:16.088Z,19.73
2018-04-28T08:23:43.693Z,19.51
2018-04-28T08:26:11.565Z,19.26
2018-04-28T08:28:39.553Z,18.80
2018-04-28T08:31:07.141Z,19.02
2018-04-28T08:33:34.722Z,19.10
2018-04-28T08:36:02.537Z,19.20
2018-04-28T08:38:30.049Z,19.04
2018-04-28T08:40:57.705Z,18.54
2018-04-28T08:43:25.326Z,18.82
2018-04-28T08:45:52.882Z,18.61
2018-04-28T08:48:20.762Z,18.85
2018-04-28T08:50:48.454Z,18.66
2018-04-28T08:53:16.096Z,18.36
2018-04-28T08:55:43.630Z,18.32
2018-04-28T08:58:11.326Z,18.49
2018-04-28T09:03:37.925Z,17.78
2018-04-28T09:06:05.724Z,17.97
2018-04-28T09:08:33.353Z,18.35
2018-04-28T09:11:01.114Z,18.42
2018-04-28T09:13:29.202Z,18.46
2018-04-28T09:15:56.863Z,18.60
2018-04-28T09:18:24.629Z,18.57
2018-04-28T09:20:52.265Z,18.84
2018-04-28T09:23:20.349Z,18.87
2018-04-28T09:25:48.182Z,18.64
2018-04-28T09:28:15.816Z,18.44
2018-04-28T09:30:43.494Z,18.57
2018-04-28T09:33:11.475Z,18.91
2018-04-28T09:35:39.011Z,18.61
2018-04-28T09:38:07.042Z,18.40
2018-04-28T09:40:34.677Z,18.80
2018-04-28T09:43:02.633Z,18.88
2018-04-28T09:45:30.384Z,18.77
2018-04-28T09:47:58.524Z,18.73
2018-04-28T09:50:26.073Z,18.94
2018-04-28T09:52:53.724Z,18.66
2018-04-28T09:55:21.733Z,19.13
2018-04-28T09:58:01.114Z,19.28
2018-04-28T10:00:30.903Z,19.49
2018-04-28T10:02:58.966Z,19.64
2018-04-28T10:05:26.815Z,19.61
2018-04-28T10:07:55.127Z,19.96
2018-04-28T10:10:23.702Z,20.02
2018-04-28T10:12:51.513Z,20.26
2018-04-28T10:15:19.611Z,20.15
2018-04-28T10:17:47.489Z,20.30
2018-04-28T10:20:15.306Z,20.46
2018-04-28T10:22:43.723Z,20.20
2018-04-28T10:25:11.475Z,20.51
2018-04-28T10:27:39.818Z,20.43
2018-04-28T10:30:08.130Z,20.77
2018-04-28T10:32:35.925Z,20.25
2018-04-28T10:35:03.972Z,20.69
2018-04-28T10:37:32.524Z,21.26
2018-04-28T10:40:23.954Z,21.74
2018-04-28T10:42:51.799Z,22.10
2018-04-28T10:45:19.413Z,21.49
2018-04-28T10:47:47.263Z,21.25
2018-04-28T10:50:14.908Z,20.21
2018-04-28T10:52:42.496Z,19.96
2018-04-28T10:55:10.098Z,19.38
2018-04-28T10:57:38.139Z,20.39
2018-04-28T11:00:05.730Z,20.89
2018-04-28T11:02:33.498Z,21.35
2018-04-28T11:05:01.901Z,21.89
2018-04-28T11:07:30.055Z,22.42
2018-04-28T11:09:57.643Z,22.58
2018-04-28T11:12:26.128Z,23.11
2018-04-28T11:14:53.774Z,23.66
2018-04-28T11:17:21.934Z,23.59
2018-04-28T11:19:49.999Z,23.33
2018-04-28T11:22:17.526Z,23.37
2018-04-28T11:24:45.179Z,23.98
2018-04-28T11:27:13.083Z,24.25
2018-04-28T11:29:40.664Z,25.06
2018-04-28T11:32:08.212Z,25.72
2018-04-28T11:34:36.204Z,26.04
2018-04-28T11:37:04.398Z,26.29
2018-04-28T11:39:32.108Z,26.40
2018-04-28T11:41:59.746Z,26.57
2018-04-28T11:44:27.320Z,26.21
2018-04-28T11:46:54.909Z,26.79
2018-04-28T11:49:22.709Z,27.20
2018-04-28T11:51:50.277Z,27.37
2018-04-28T11:54:17.900Z,27.38
2018-04-28T11:56:45.739Z,27.98
2018-04-28T11:59:13.723Z,26.81
2018-04-28T12:01:41.724Z,26.07
2018-04-28T12:04:09.471Z,26.49
2018-04-28T12:06:37.033Z,27.09
2018-04-28T12:09:05.526Z,27.33
2018-04-28T12:11:33.126Z,27.96
2018-04-28T12:14:01.018Z,28.78
2018-04-28T12:16:28.694Z,28.40
2018-04-28T12:18:56.402Z,28.21
2018-04-28T12:21:24.936Z,27.98
2018-04-28T12:23:52.865Z,29.22
2018-04-28T12:26:20.728Z,31.20
2018-04-28T12:28:48.375Z,32.04
2018-04-28T12:31:16.085Z,33.64
2018-04-28T12:33:43.933Z,33.20
2018-04-28T12:36:11.620Z,33.23
2018-04-28T12:38:39.715Z,33.51
2018-04-28T12:41:07.831Z,33.49
2018-04-28T12:43:35.767Z,32.96
2018-04-28T12:46:04.162Z,32.29
2018-04-28T12:48:31.922Z,33.99
2018-04-28T12:50:59.643Z,35.29
2018-04-28T12:53:27.761Z,35.59
2018-04-28T12:55:55.934Z,34.86
2018-04-28T12:58:23.524Z,36.18
2018-04-28T13:00:51.190Z,37.47
2018-04-28T13:03:19.124Z,37.32
2018-04-28T13:05:46.829Z,37.52
2018-04-28T13:08:14.518Z,36.05
2018-04-28T13:10:42.196Z,36.48
2018-04-28T13:13:09.740Z,36.69
2018-04-28T13:15:37.314Z,36.11
2018-04-28T13:18:04.885Z,35.14
2018-04-28T13:20:32.848Z,35.43
2018-04-28T13:23:00.591Z,34.75
2018-04-28T13:25:28.737Z,34.85
2018-04-28T13:27:56.319Z,35.58
2018-04-28T13:30:23.871Z,35.79
2018-04-28T13:32:51.752Z,35.54
2018-04-28T13:35:19.324Z,34.64
2018-04-28T13:37:46.951Z,33.45
2018-04-28T13:40:14.661Z,35.24
2018-04-28T13:42:42.437Z,34.85
2018-04-28T13:45:10.109Z,35.05
2018-04-28T13:47:38.023Z,35.69
2018-04-28T13:50:06.744Z,35.03
2018-04-28T13:52:34.922Z,33.43
2018-04-28T13:55:02.928Z,34.63
2018-04-28T13:57:30.670Z,34.11
2018-04-28T13:59:58.360Z,33.68
2018-04-28T14:02:26.588Z,34.34
2018-04-28T14:04:54.404Z,34.56
2018-04-28T14:07:22.048Z,35.12
2018-04-28T14:09:50.444Z,34.96
2018-04-28T14:12:18.063Z,35.71
2018-04-28T14:14:45.650Z,36.12
2018-04-28T14:17:13.602Z,36.50
2018-04-28T14:19:41.271Z,36.24
2018-04-28T14:22:08.923Z,35.11
2018-04-28T14:24:36.498Z,34.96
2018-04-28T14:27:04.562Z,32.85
2018-04-28T14:29:32.683Z,31.07
2018-04-28T14:32:00.405Z,31.63
2018-04-28T14:34:28.076Z,31.61
2018-04-28T14:36:55.780Z,31.70
2018-04-28T14:39:24.382Z,32.66
2018-04-28T14:41:52.879Z,32.74
2018-04-28T14:44:20.964Z,32.79
2018-04-28T14:46:49.077Z,31.71
2018-04-28T14:49:16.721Z,31.36
2018-04-28T14:51:44.286Z,31.41
2018-04-28T14:54:12.194Z,31.10
2018-04-28T14:56:42.429Z,29.97
2018-04-28T14:59:09.992Z,29.26
2018-04-28T15:01:37.615Z,29.62
2018-04-28T15:04:06.272Z,29.53
2018-04-28T15:06:34.073Z,29.35
2018-04-28T15:09:02.860Z,28.63
2018-04-28T15:11:30.460Z,28.23
2018-04-28T15:13:58.517Z,28.79
2018-04-28T15:16:26.212Z,29.67
2018-04-28T15:18:53.793Z,29.53
2018-04-28T15:21:21.336Z,29.20
2018-04-28T15:23:49.175Z,28.88
2018-04-28T15:26:16.719Z,28.88
2018-04-28T15:28:44.660Z,28.67
2018-04-28T15:31:12.260Z,28.74
2018-04-28T15:33:39.902Z,28.46
2018-04-28T15:36:07.373Z,27.85
2018-04-28T15:38:34.985Z,27.58
2018-04-28T15:41:02.550Z,27.58
2018-04-28T15:43:30.112Z,27.60
2018-04-28T15:45:57.985Z,27.71
2018-04-28T15:48:25.966Z,27.79
2018-04-28T15:50:54.717Z,27.92
2018-04-28T15:53:22.403Z,27.13
2018-04-28T15:55:49.929Z,26.20
2018-04-28T15:58:18.356Z,25.58
2018-04-28T16:00:46.107Z,25.53
2018-04-28T16:03:13.625Z,25.20
2018-04-28T16:05:41.437Z,24.77
2018-04-28T16:08:09.392Z,24.67
2018-04-28T16:10:37.068Z,24.07
2018-04-28T16:13:04.628Z,23.53
2018-04-28T16:15:32.372Z,23.70
2018-04-28T16:17:59.889Z,23.62
2018-04-28T16:20:27.407Z,23.24
2018-04-28T16:22:55.093Z,23.17
2018-04-28T16:25:22.604Z,23.37
2018-04-28T16:27:50.141Z,23.15
2018-04-28T16:30:18.264Z,23.19
2018-04-28T16:32:45.810Z,23.26
2018-04-28T16:35:13.584Z,23.36
2018-04-28T16:37:41.765Z,23.36
2018-04-28T16:40:09.293Z,23.43
2018-04-28T16:42:36.827Z,23.06
2018-04-28T16:45:04.652Z,23.40
2018-04-28T16:47:32.509Z,23.64
2018-04-28T16:50:00.080Z,23.39
2018-04-28T16:52:27.896Z,23.49
2018-04-28T16:54:55.403Z,23.30
2018-04-28T16:57:23.013Z,23.21
2018-04-28T16:59:50.573Z,23.26
2018-04-28T17:02:18.173Z,23.24
2018-04-28T17:04:45.697Z,22.86
2018-04-28T17:07:13.572Z,22.75
2018-04-28T17:09:41.098Z,22.48
2018-04-28T17:12:08.626Z,22.65
2018-04-28T17:14:36.362Z,22.57
2018-04-28T17:17:03.954Z,22.39
2018-04-28T17:19:31.435Z,22.15
2018-04-28T17:21:59.257Z,21.93
2018-04-28T17:24:26.774Z,21.91
2018-04-28T17:26:54.333Z,21.78
2018-04-28T17:29:22.439Z,21.78
2018-04-28T17:31:50.003Z,21.66
2018-04-28T17:34:17.624Z,21.54
2018-04-28T17:36:45.627Z,21.35
2018-04-28T17:39:13.280Z,21.38
2018-04-28T17:41:41.049Z,21.35
2018-04-28T17:44:08.596Z,21.29
2018-04-28T17:46:36.109Z,21.31
2018-04-28T17:49:03.641Z,21.14
2018-04-28T17:51:31.186Z,21.14
2018-04-28T17:53:58.729Z,21.14
2018-04-28T17:56:26.307Z,21.04
2018-04-28T17:58:54.410Z,20.98
2018-04-28T18:01:22.167Z,20.98
2018-04-28T18:03:49.681Z,20.83
2018-04-28T18:06:18.484Z,20.57
2018-04-28T18:08:45.997Z,20.46
2018-04-28T18:11:15.672Z,20.40
2018-04-28T18:13:43.513Z,20.37
2018-04-28T18:16:11.024Z,20.29
2018-04-28T18:18:38.535Z,20.21
2018-04-28T18:21:06.297Z,20.16
2018-04-28T18:23:33.817Z,20.10
2018-04-28T18:26:01.365Z,19.99
2018-04-28T18:28:28.945Z,19.89
2018-04-28T18:30:56.521Z,19.89
2018-04-28T18:33:24.038Z,19.82
2018-04-28T18:35:51.604Z,19.82
2018-04-28T18:38:19.162Z,19.80
2018-04-28T18:40:53.719Z,19.80
2018-04-28T18:43:21.360Z,19.81
2018-04-28T18:45:48.899Z,19.75
2018-04-28T18:48:16.997Z,19.72
2018-04-28T18:50:44.810Z,19.58
2018-04-28T18:53:12.473Z,19.67
2018-04-28T18:55:40.212Z,19.65
2018-04-28T18:58:07.797Z,19.67
2018-04-28T19:00:35.458Z,19.56
2018-04-28T19:03:03.508Z,19.56
2018-04-28T19:05:32.624Z,19.60
2018-04-28T19:08:00.386Z,19.58
2018-04-28T19:10:28.180Z,19.54
2018-04-28T19:12:56.941Z,19.43
2018-04-28T19:15:24.602Z,19.45
2018-04-28T19:17:52.471Z,19.48
2018-04-28T19:20:20.236Z,19.43
2018-04-28T19:22:48.203Z,19.45
2018-04-28T19:25:15.948Z,19.40
2018-04-28T19:27:43.833Z,19.43
2018-04-28T19:30:11.816Z,19.40
2018-04-28T19:32:39.752Z,19.39
2018-04-28T19:35:07.905Z,19.36
2018-04-28T19:37:35.606Z,19.33
2018-04-28T19:40:03.779Z,19.29
2018-04-28T19:42:31.819Z,19.26
2018-04-28T19:44:59.409Z,19.18
2018-04-28T19:47:27.176Z,19.06
2018-04-28T19:49:54.940Z,19.01
2018-04-28T19:52:22.806Z,18.94
2018-04-28T19:54:50.601Z,18.83
2018-04-28T19:57:18.437Z,18.80
2018-04-28T19:59:46.209Z,18.75
2018-04-28T20:02:14.274Z,18.67
2018-04-28T20:04:41.935Z,18.47
2018-04-28T20:07:09.699Z,18.45
2018-04-28T20:09:37.260Z,18.44
2018-04-28T20:12:05.124Z,18.48
2018-04-28T20:14:32.714Z,18.42
2018-04-28T20:17:00.447Z,18.37
2018-04-28T20:19:28.073Z,18.32
2018-04-28T20:22:08.230Z,18.26
2018-04-28T20:24:48.004Z,18.12
2018-04-28T20:27:15.773Z,18.07
2018-04-28T20:29:43.643Z,18.00
2018-04-28T20:32:11.507Z,17.97
2018-04-28T20:34:39.758Z,17.90
2018-04-28T20:37:07.768Z,17.82
2018-04-28T20:39:35.618Z,17.80
2018-04-28T20:42:03.493Z,17.79
2018-04-28T20:44:31.080Z,17.73
2018-04-28T20:46:59.527Z,17.67
2018-04-28T20:49:27.135Z,17.68
2018-04-28T20:51:54.747Z,17.57
2018-04-28T20:54:22.304Z,17.56
2018-04-28T20:56:50.275Z,17.53
2018-04-28T20:59:17.931Z,17.43
2018-04-28T21:01:45.654Z,17.28
2018-04-28T21:04:13.557Z,17.16
2018-04-28T21:06:41.191Z,17.05
2018-04-28T21:09:08.818Z,17.02
2018-04-28T21:11:36.547Z,16.76
2018-04-28T21:14:04.155Z,16.88
2018-04-28T21:16:31.665Z,16.81
2018-04-28T21:18:59.686Z,16.78
2018-04-28T21:21:27.629Z,16.79
2018-04-28T21:23:55.373Z,16.66
2018-04-28T21:26:23.239Z,16.60
2018-04-28T21:28:51.208Z,16.48
2018-04-28T21:31:18.981Z,16.50
2018-04-28T21:33:46.942Z,16.51
2018-04-28T21:36:14.603Z,16.31
2018-04-28T21:38:42.201Z,16.45
2018-04-28T21:41:09.948Z,16.14
2018-04-28T21:43:37.673Z,16.31
2018-04-28T21:46:05.352Z,16.00
2018-04-28T21:48:33.098Z,16.12
2018-04-28T21:51:00.884Z,15.97
2018-04-28T21:53:28.544Z,15.78
2018-04-28T21:55:56.901Z,15.98
2018-04-28T21:58:24.523Z,15.83
2018-04-28T22:00:52.670Z,15.99
2018-04-28T22:03:20.589Z,15.94
2018-04-28T22:05:48.441Z,16.03
2018-04-28T22:08:16.051Z,16.04
2018-04-28T22:10:43.689Z,16.09
2018-04-28T22:13:11.513Z,16.15
2018-04-28T22:15:39.184Z,16.24
2018-04-28T22:18:07.381Z,16.17
2018-04-28T22:20:35.120Z,16.37
2018-04-28T22:23:02.872Z,16.27
2018-04-28T22:25:30.700Z,16.28
2018-04-28T22:27:58.484Z,16.41
2018-04-28T22:30:26.465Z,16.19
2018-04-28T22:32:54.429Z,16.41
2018-04-28T22:35:22.486Z,16.45
2018-04-28T22:37:50.243Z,16.63
2018-04-28T22:40:18.121Z,16.54
2018-04-28T22:42:45.977Z,16.47
2018-04-28T22:45:13.785Z,16.56
2018-04-28T22:47:41.609Z,16.71
2018-04-28T22:50:09.163Z,16.60
2018-04-28T22:52:36.690Z,16.42
2018-04-28T22:55:04.477Z,16.39
2018-04-28T22:57:32.054Z,16.31
2018-04-28T22:59:59.572Z,16.23
2018-04-28T23:02:27.156Z,16.45
2018-04-28T23:04:54.779Z,16.28
2018-04-28T23:07:22.369Z,16.31
2018-04-28T23:09:50.015Z,16.03
2018-04-28T23:12:17.741Z,16.11
2018-04-28T23:14:45.617Z,16.14
2018-04-28T23:17:13.233Z,15.40
2018-04-28T23:19:41.033Z,15.25
2018-04-28T23:22:08.618Z,15.35
2018-04-28T23:24:36.653Z,15.32
2018-04-28T23:27:04.520Z,15.07
2018-04-28T23:29:32.912Z,15.04
2018-04-28T23:32:00.902Z,15.04
2018-04-28T23:34:28.480Z,15.11
2018-04-28T23:36:56.034Z,15.23
2018-04-28T23:39:23.649Z,15.00
2018-04-28T23:41:51.178Z,15.05
2018-04-28T23:44:19.063Z,15.08
2018-04-28T23:46:46.831Z,14.99
2018-04-28T23:49:14.391Z,15.13
2018-04-28T23:51:41.956Z,15.12
2018-04-28T23:54:10.360Z,14.98
2018-04-28T23:56:37.895Z,14.96
2018-04-28T23:59:05.433Z,14.87
